createdAt,value
2023-01-30T00:01:02.253Z,9.00
2023-01-30T00:03:29.184Z,9.00
2023-01-30T00:05:56.110Z,8.00
2023-01-30T00:08:23.321Z,5.50
2023-01-30T00:10:50.329Z,6.00
2023-01-30T00:13:17.256Z,5.50
2023-01-30T00:15:44.528Z,5.00
2023-01-30T00:18:11.556Z,5.50
2023-01-30T00:20:38.476Z,6.25
2023-01-30T00:23:06.310Z,5.00
2023-01-30T00:25:33.318Z,7.00
2023-01-30T00:28:01.676Z,10.00
2023-01-30T00:30:30.164Z,12.00
2023-01-30T00:32:59.979Z,10.00
2023-01-30T00:35:27.200Z,9.00
2023-01-30T00:38:00.934Z,9.00
2023-01-30T00:40:29.799Z,8.00
2023-01-30T00:42:56.695Z,7.50
2023-01-30T00:45:23.588Z,7.00
2023-01-30T00:47:50.831Z,5.25
2023-01-30T00:50:17.910Z,8.75
2023-01-30T00:52:44.838Z,8.00
2023-01-30T00:55:12.147Z,7.00
2023-01-30T00:57:39.010Z,9.00
2023-01-30T01:00:06.739Z,7.75
2023-01-30T01:02:33.753Z,9.00
2023-01-30T01:05:01.348Z,6.00
2023-01-30T01:07:28.308Z,11.50
2023-01-30T01:09:55.453Z,12.00
2023-01-30T01:12:22.339Z,13.75
2023-01-30T01:14:49.316Z,10.50
2023-01-30T01:17:16.493Z,9.00
2023-01-30T01:19:43.547Z,9.00
2023-01-30T01:22:10.470Z,9.00
2023-01-30T01:24:37.456Z,10.00
2023-01-30T01:27:04.349Z,10.00
2023-01-30T01:29:32.369Z,10.00
2023-01-30T01:31:59.271Z,11.00
2023-01-30T01:34:26.266Z,11.00
2023-01-30T01:36:54.205Z,12.00
2023-01-30T01:39:21.995Z,11.50
2023-01-30T01:41:50.352Z,10.00
2023-01-30T01:44:17.541Z,14.00
2023-01-30T01:46:58.672Z,12.50
2023-01-30T01:49:36.340Z,10.00
2023-01-30T01:52:11.717Z,11.75
2023-01-30T01:54:54.500Z,10.00
2023-01-30T01:57:30.523Z,10.75
2023-01-30T02:00:22.192Z,7.00
2023-01-30T02:02:55.015Z,11.00
2023-01-30T02:05:23.709Z,11.00
2023-01-30T02:08:02.488Z,11.00
2023-01-30T02:11:07.973Z,11.00
2023-01-30T02:13:38.172Z,11.00
2023-01-30T02:16:07.683Z,10.25
2023-01-30T02:18:37.235Z,12.75
2023-01-30T02:21:37.227Z,11.00
2023-01-30T02:24:36.701Z,10.00
2023-01-30T02:27:17.768Z,11.00
2023-01-30T02:29:56.775Z,10.75
2023-01-30T02:32:32.341Z,8.75
2023-01-30T02:35:05.098Z,9.25
2023-01-30T02:37:44.178Z,12.00
2023-01-30T02:40:33.308Z,11.00
2023-01-30T02:43:18.503Z,9.00
2023-01-30T02:45:54.372Z,9.00
2023-01-30T02:48:30.949Z,10.00
2023-01-30T02:51:04.698Z,11.25
2023-01-30T02:53:33.312Z,11.00
2023-01-30T02:56:00.856Z,12.00
2023-01-30T02:58:34.100Z,10.75
2023-01-30T03:01:32.194Z,10.00
2023-01-30T03:04:11.501Z,6.75
2023-01-30T03:07:01.157Z,5.00
2023-01-30T03:09:35.116Z,7.00
2023-01-30T03:12:11.441Z,7.00
2023-01-30T03:15:01.712Z,7.75
2023-01-30T03:17:32.490Z,6.75
2023-01-30T03:20:01.050Z,9.25
2023-01-30T03:22:37.065Z,11.00
2023-01-30T03:25:05.324Z,11.00
2023-01-30T03:27:35.652Z,12.50
2023-01-30T03:30:02.718Z,13.50
2023-01-30T03:32:29.719Z,12.00
2023-01-30T03:34:56.941Z,9.00
2023-01-30T03:37:23.911Z,7.00
2023-01-30T03:39:50.895Z,7.00
2023-01-30T03:42:18.010Z,6.75
2023-01-30T03:44:45.034Z,8.00
2023-01-30T03:47:11.998Z,10.00
2023-01-30T03:49:39.139Z,8.50
2023-01-30T03:52:06.010Z,14.00
2023-01-30T03:54:32.932Z,15.75
2023-01-30T03:56:59.788Z,17.25
2023-01-30T03:59:26.800Z,14.00
2023-01-30T04:02:02.064Z,10.00
2023-01-30T04:04:29.190Z,13.00
2023-01-30T04:06:57.118Z,10.00
2023-01-30T04:09:24.638Z,8.25
2023-01-30T04:11:52.752Z,9.00
2023-01-30T04:14:19.994Z,9.00
2023-01-30T04:17:25.311Z,8.00
2023-01-30T04:20:12.322Z,7.50
2023-01-30T04:22:44.954Z,7.00
2023-01-30T04:25:12.144Z,8.00
2023-01-30T04:27:39.009Z,9.75
2023-01-30T04:30:18.287Z,10.25
2023-01-30T04:32:47.523Z,11.75
2023-01-30T04:35:15.596Z,11.00
2023-01-30T04:37:42.846Z,9.50
2023-01-30T04:40:13.333Z,10.50
2023-01-30T04:42:40.799Z,11.50
2023-01-30T04:45:26.227Z,8.00
2023-01-30T04:47:53.424Z,7.75
2023-01-30T04:50:20.489Z,7.50
2023-01-30T04:52:47.434Z,9.50
2023-01-30T04:55:14.441Z,10.00
2023-01-30T04:57:41.451Z,10.00
2023-01-30T05:00:09.983Z,12.00
2023-01-30T05:02:41.042Z,11.00
2023-01-30T05:05:08.345Z,10.00
2023-01-30T05:07:35.195Z,12.00
2023-01-30T05:10:02.234Z,10.00
2023-01-30T05:12:31.698Z,9.00
2023-01-30T05:14:58.736Z,8.50
2023-01-30T05:17:25.816Z,10.00
2023-01-30T05:19:52.708Z,13.75
2023-01-30T05:22:19.632Z,10.25
2023-01-30T05:24:46.647Z,11.50
2023-01-30T05:27:13.533Z,12.50
2023-01-30T05:29:40.423Z,10.75
2023-01-30T05:32:07.667Z,10.75
2023-01-30T05:34:34.658Z,10.00
2023-01-30T05:37:01.499Z,11.00
2023-01-30T05:39:28.479Z,11.00
2023-01-30T05:41:55.291Z,15.75
2023-01-30T05:44:22.382Z,15.00
2023-01-30T05:46:49.654Z,10.00
2023-01-30T05:49:16.742Z,10.00
2023-01-30T05:51:43.586Z,13.25
2023-01-30T05:54:10.654Z,13.00
2023-01-30T05:56:37.564Z,16.00
2023-01-30T05:59:04.536Z,13.75
2023-01-30T06:01:31.790Z,12.00
2023-01-30T06:03:59.211Z,13.00
2023-01-30T06:06:26.284Z,10.00
2023-01-30T06:08:54.537Z,10.00
2023-01-30T06:11:22.934Z,12.00
2023-01-30T06:13:50.095Z,12.00
2023-01-30T06:16:18.336Z,12.00
2023-01-30T06:18:45.841Z,12.00
2023-01-30T06:21:14.029Z,10.50
2023-01-30T06:23:41.887Z,10.00
2023-01-30T06:26:09.618Z,15.25
2023-01-30T06:28:36.732Z,13.00
2023-01-30T06:31:06.600Z,12.00
2023-01-30T06:33:33.678Z,13.00
2023-01-30T06:36:00.576Z,13.00
2023-01-30T06:38:27.492Z,12.00
2023-01-30T06:40:54.339Z,12.50
2023-01-30T06:43:21.727Z,14.00
2023-01-30T06:45:48.701Z,13.25
2023-01-30T06:48:15.645Z,13.00
2023-01-30T06:50:42.613Z,12.00
2023-01-30T06:53:11.080Z,10.50
2023-01-30T06:55:37.955Z,11.00
2023-01-30T06:58:06.165Z,14.00
2023-01-30T07:00:34.515Z,14.50
2023-01-30T07:03:01.794Z,13.50
2023-01-30T07:05:29.015Z,12.00
2023-01-30T07:07:55.981Z,13.50
2023-01-30T07:10:23.511Z,13.00
2023-01-30T07:12:50.521Z,14.00
2023-01-30T07:15:17.770Z,14.75
2023-01-30T07:17:44.874Z,14.00
2023-01-30T07:20:12.101Z,14.50
2023-01-30T07:22:39.107Z,14.00
2023-01-30T07:25:06.661Z,16.00
2023-01-30T07:27:34.156Z,13.00
2023-01-30T07:30:01.025Z,15.25
2023-01-30T07:32:28.089Z,13.00
2023-01-30T07:34:55.008Z,14.00
2023-01-30T07:37:21.946Z,15.00
2023-01-30T07:39:48.813Z,14.50
2023-01-30T07:42:15.904Z,17.00
2023-01-30T07:44:42.866Z,16.00
2023-01-30T07:47:09.986Z,16.25
2023-01-30T07:49:36.979Z,18.00
2023-01-30T07:52:04.206Z,16.00
2023-01-30T07:54:31.082Z,14.00
2023-01-30T07:56:58.136Z,14.00
2023-01-30T07:59:25.034Z,15.00
2023-01-30T08:01:52.027Z,15.00
2023-01-30T08:04:19.096Z,14.00
2023-01-30T08:06:46.223Z,16.75
2023-01-30T08:09:13.125Z,14.00
2023-01-30T08:11:40.188Z,13.75
2023-01-30T08:14:07.040Z,15.00
2023-01-30T08:16:34.066Z,14.00
2023-01-30T08:19:01.037Z,12.00
2023-01-30T08:21:27.969Z,11.75
2023-01-30T08:23:54.800Z,14.00
2023-01-30T08:26:21.705Z,13.00
2023-01-30T08:28:49.111Z,12.00
2023-01-30T08:31:17.629Z,12.00
2023-01-30T08:33:44.981Z,13.00
2023-01-30T08:36:11.900Z,10.00
2023-01-30T08:38:38.747Z,13.75
2023-01-30T08:41:07.286Z,12.00
2023-01-30T08:43:35.257Z,13.25
2023-01-30T08:46:02.597Z,9.00
2023-01-30T08:48:36.721Z,12.00
2023-01-30T08:51:07.354Z,12.75
2023-01-30T08:53:34.440Z,11.00
2023-01-30T08:56:01.383Z,11.00
2023-01-30T08:58:28.303Z,11.00
2023-01-30T09:00:55.532Z,11.50
2023-01-30T09:03:22.367Z,11.00
2023-01-30T09:05:55.809Z,15.00
2023-01-30T09:08:22.953Z,12.50
2023-01-30T09:10:49.819Z,11.00
2023-01-30T09:13:16.815Z,11.00
2023-01-30T09:15:44.799Z,11.00
2023-01-30T09:18:11.883Z,11.00
2023-01-30T09:20:38.883Z,7.75
2023-01-30T09:23:05.820Z,7.00
2023-01-30T09:25:32.627Z,9.00
2023-01-30T09:27:59.685Z,7.00
2023-01-30T09:30:26.783Z,5.00
2023-01-30T09:32:53.960Z,7.00
2023-01-30T09:35:20.912Z,9.75
2023-01-30T09:37:49.771Z,9.50
2023-01-30T09:40:28.538Z,11.00
2023-01-30T09:43:20.471Z,11.00
2023-01-30T09:45:53.407Z,14.00
2023-01-30T09:48:32.406Z,13.00
2023-01-30T09:51:21.108Z,12.00
2023-01-30T09:54:13.025Z,13.50
2023-01-30T09:56:40.368Z,11.25
2023-01-30T09:59:16.070Z,11.25
2023-01-30T10:02:24.579Z,11.00
2023-01-30T10:05:00.932Z,9.00
2023-01-30T10:07:57.194Z,8.00
2023-01-30T10:10:48.322Z,7.00
2023-01-30T10:13:41.206Z,7.00
2023-01-30T10:16:24.083Z,8.25
2023-01-30T10:19:09.087Z,9.00
2023-01-30T10:21:44.646Z,7.00
2023-01-30T10:24:49.826Z,8.25
2023-01-30T10:27:18.514Z,9.50
2023-01-30T10:29:52.032Z,6.00
2023-01-30T10:32:26.682Z,9.00
2023-01-30T10:34:58.141Z,7.00
2023-01-30T10:37:31.284Z,9.25
2023-01-30T10:40:21.820Z,13.50
2023-01-30T10:43:10.104Z,12.25
2023-01-30T10:46:07.026Z,10.00
2023-01-30T10:48:57.175Z,10.75
2023-01-30T10:51:57.936Z,7.00
2023-01-30T10:54:40.500Z,5.25
2023-01-30T10:57:26.277Z,7.00
2023-01-30T10:59:59.002Z,8.50
2023-01-30T11:02:56.916Z,8.00
2023-01-30T11:05:47.031Z,7.00
2023-01-30T11:08:19.162Z,5.25
2023-01-30T11:10:46.185Z,5.00
2023-01-30T11:13:20.787Z,5.00
2023-01-30T11:15:53.910Z,4.75
2023-01-30T11:21:19.972Z,8.00
2023-01-30T11:23:46.984Z,7.00
2023-01-30T11:26:46.850Z,7.00
2023-01-30T11:29:33.186Z,4.00
2023-01-30T11:32:05.724Z,5.50
2023-01-30T11:34:33.149Z,5.00
2023-01-30T11:37:30.612Z,2.75
2023-01-30T11:39:57.617Z,5.00
2023-01-30T11:42:32.219Z,7.00
2023-01-30T11:45:16.222Z,9.25
2023-01-30T11:48:05.414Z,10.25
2023-01-30T11:50:44.805Z,12.00
2023-01-30T11:53:25.604Z,9.00
2023-01-30T11:56:08.536Z,10.50
2023-01-30T11:58:39.658Z,13.00
2023-01-30T12:01:10.006Z,15.00
2023-01-30T12:03:53.520Z,12.00
2023-01-30T12:06:33.020Z,11.00
2023-01-30T12:09:00.199Z,10.00
2023-01-30T12:11:38.428Z,7.00
2023-01-30T12:14:44.912Z,8.00
2023-01-30T12:17:31.508Z,9.50
2023-01-30T12:20:01.300Z,12.00
2023-01-30T12:22:41.963Z,13.00
2023-01-30T12:25:26.781Z,13.00
2023-01-30T12:28:01.867Z,9.25
2023-01-30T12:30:36.440Z,8.00
2023-01-30T12:33:06.226Z,5.25
2023-01-30T12:36:06.721Z,6.00
2023-01-30T12:38:56.168Z,3.00
2023-01-30T12:41:42.853Z,5.00
2023-01-30T12:44:25.727Z,6.75
2023-01-30T12:47:30.444Z,9.00
2023-01-30T12:50:06.268Z,8.50
2023-01-30T12:52:56.808Z,6.25
2023-01-30T12:56:02.795Z,9.25
2023-01-30T12:58:57.627Z,12.00
2023-01-30T13:01:48.127Z,12.00
2023-01-30T13:04:35.787Z,11.00
2023-01-30T13:07:13.539Z,11.00
2023-01-30T13:10:12.209Z,9.00
2023-01-30T13:13:07.949Z,8.00
2023-01-30T13:15:49.035Z,9.00
2023-01-30T13:18:24.248Z,11.25
2023-01-30T13:21:16.525Z,11.00
2023-01-30T13:23:49.279Z,10.00
2023-01-30T13:26:31.164Z,9.00
2023-01-30T13:29:24.322Z,7.00
2023-01-30T13:31:55.301Z,7.00
2023-01-30T13:34:55.556Z,8.00
2023-01-30T13:37:22.630Z,8.25
2023-01-30T13:40:13.747Z,9.50
2023-01-30T13:42:47.968Z,7.00
2023-01-30T13:45:22.184Z,8.00
2023-01-30T13:47:57.946Z,9.00
2023-01-30T13:50:41.782Z,10.75
2023-01-30T13:53:11.506Z,10.00
2023-01-30T13:55:50.566Z,10.00
2023-01-30T13:58:37.354Z,10.50
2023-01-30T14:01:04.444Z,5.00
2023-01-30T14:03:33.130Z,8.00
2023-01-30T14:06:21.919Z,8.00
2023-01-30T14:08:54.737Z,8.00
2023-01-30T14:11:38.052Z,8.75
2023-01-30T14:14:29.151Z,5.25
2023-01-30T14:17:14.350Z,4.25
2023-01-30T14:19:46.136Z,7.00
2023-01-30T14:22:45.298Z,7.50
2023-01-30T14:25:30.569Z,7.00
2023-01-30T14:28:00.384Z,9.00
2023-01-30T14:30:39.207Z,7.50
2023-01-30T14:33:29.504Z,10.50
2023-01-30T14:36:02.581Z,11.00
2023-01-30T14:38:36.869Z,10.00
2023-01-30T14:41:03.774Z,7.00
2023-01-30T14:43:42.597Z,9.00
2023-01-30T14:46:19.009Z,5.75
2023-01-30T14:48:53.283Z,6.00
2023-01-30T14:51:48.996Z,5.00
2023-01-30T14:54:16.106Z,5.00
2023-01-30T14:57:03.591Z,6.50
2023-01-30T14:59:45.815Z,5.00
2023-01-30T15:02:12.754Z,7.00
2023-01-30T15:04:47.083Z,7.00
2023-01-30T15:07:14.072Z,5.00
2023-01-30T15:09:45.746Z,8.00
2023-01-30T15:12:21.374Z,5.00
2023-01-30T15:15:04.125Z,6.50
2023-01-30T15:17:40.396Z,4.50
2023-01-30T15:20:13.652Z,6.00
2023-01-30T15:22:52.946Z,5.00
2023-01-30T15:25:49.070Z,4.00
2023-01-30T15:28:41.836Z,5.00
2023-01-30T15:31:18.362Z,3.00
2023-01-30T15:33:53.864Z,3.00
2023-01-30T15:36:30.840Z,3.25
2023-01-30T15:39:04.301Z,3.00
2023-01-30T15:41:41.809Z,5.75
2023-01-30T15:44:34.847Z,3.00
2023-01-30T15:47:14.059Z,5.00
2023-01-30T15:50:04.847Z,5.00
2023-01-30T15:52:39.354Z,3.50
2023-01-30T15:55:08.022Z,3.00
2023-01-30T15:57:38.839Z,3.00
2023-01-30T16:00:08.377Z,3.25
2023-01-30T16:02:43.283Z,4.00
2023-01-30T16:05:24.847Z,3.50
2023-01-30T16:07:54.470Z,4.50
2023-01-30T16:10:26.059Z,5.00
2023-01-30T16:12:56.163Z,3.50
2023-01-30T16:15:36.256Z,3.00
2023-01-30T16:18:06.219Z,5.00
2023-01-30T16:21:03.215Z,1.00
2023-01-30T16:23:43.671Z,3.00
2023-01-30T16:26:16.201Z,4.25
2023-01-30T16:28:43.693Z,3.50
2023-01-30T16:31:11.768Z,3.00
2023-01-30T16:33:39.312Z,5.00
2023-01-30T16:36:26.486Z,3.75
2023-01-30T16:38:55.187Z,4.50
2023-01-30T16:41:34.413Z,5.25
2023-01-30T16:44:34.007Z,7.00
2023-01-30T16:47:22.943Z,5.00
2023-01-30T16:49:50.423Z,3.25
2023-01-30T16:52:34.589Z,6.25
2023-01-30T16:55:05.692Z,5.00
2023-01-30T16:57:37.174Z,5.00
2023-01-30T17:00:07.428Z,6.25
2023-01-30T17:02:37.368Z,7.00
2023-01-30T17:05:19.571Z,4.75
2023-01-30T17:07:47.745Z,3.00
2023-01-30T17:10:39.500Z,4.00
2023-01-30T17:13:34.519Z,5.00
2023-01-30T17:16:25.317Z,3.50
2023-01-30T17:18:54.764Z,3.00
2023-01-30T17:21:24.376Z,3.00
2023-01-30T17:23:56.492Z,3.50
2023-01-30T17:26:23.802Z,4.75
2023-01-30T17:28:50.700Z,6.25
2023-01-30T17:31:18.103Z,4.00
2023-01-30T17:33:44.999Z,3.00
2023-01-30T17:36:41.514Z,3.00
2023-01-30T17:39:12.260Z,3.00
2023-01-30T17:41:39.839Z,5.25
2023-01-30T17:44:06.863Z,10.25
2023-01-30T17:46:46.965Z,12.75
2023-01-30T17:49:24.545Z,10.00
2023-01-30T17:51:52.781Z,5.00
2023-01-30T17:54:20.156Z,5.00
2023-01-30T17:56:51.721Z,3.00
2023-01-30T17:59:20.596Z,4.00
2023-01-30T18:01:50.375Z,5.00
2023-01-30T18:04:19.030Z,3.25
2023-01-30T18:06:49.412Z,5.50
2023-01-30T18:09:20.376Z,3.00
2023-01-30T18:11:48.617Z,7.00
2023-01-30T18:14:16.597Z,4.00
2023-01-30T18:16:44.331Z,3.00
2023-01-30T18:19:17.267Z,4.00
2023-01-30T18:21:44.252Z,7.00
2023-01-30T18:24:14.769Z,3.75
2023-01-30T18:26:42.693Z,4.25
2023-01-30T18:29:10.667Z,4.00
2023-01-30T18:31:41.750Z,5.00
2023-01-30T18:34:11.344Z,3.75
2023-01-30T18:36:38.832Z,3.75
2023-01-30T18:39:06.177Z,5.00
2023-01-30T18:41:33.208Z,5.00
2023-01-30T18:44:04.812Z,5.00
2023-01-30T18:46:33.973Z,5.00
2023-01-30T18:49:01.059Z,3.50
2023-01-30T18:51:32.005Z,4.50
2023-01-30T18:54:01.419Z,5.00
2023-01-30T18:56:30.875Z,7.00
2023-01-30T18:58:59.329Z,7.00
2023-01-30T19:01:28.043Z,6.00
2023-01-30T19:04:02.040Z,8.00
2023-01-30T19:06:29.527Z,5.50
2023-01-30T19:08:57.666Z,6.50
2023-01-30T19:11:25.173Z,5.75
2023-01-30T19:13:53.281Z,6.00
2023-01-30T19:16:21.705Z,3.00
2023-01-30T19:18:48.958Z,3.00
2023-01-30T19:21:17.232Z,6.00
2023-01-30T19:23:44.196Z,4.75
2023-01-30T19:26:11.429Z,5.75
2023-01-30T19:28:39.169Z,4.50
2023-01-30T19:31:07.837Z,5.25
2023-01-30T19:33:35.193Z,5.00
2023-01-30T19:36:13.367Z,3.00
2023-01-30T19:38:41.381Z,5.75
2023-01-30T19:41:28.565Z,8.25
2023-01-30T19:43:57.413Z,8.00
2023-01-30T19:46:24.939Z,5.50
2023-01-30T19:48:51.980Z,7.50
2023-01-30T19:51:27.507Z,8.00
2023-01-30T19:53:57.427Z,8.00
2023-01-30T19:56:25.948Z,5.00
2023-01-30T19:58:54.745Z,6.00
2023-01-30T20:01:24.399Z,4.00
2023-01-30T20:03:51.486Z,7.00
2023-01-30T20:06:21.092Z,7.00
2023-01-30T20:08:50.066Z,5.00
2023-01-30T20:11:19.152Z,6.75
2023-01-30T20:13:46.720Z,6.50
2023-01-30T20:16:16.138Z,4.00
2023-01-30T20:18:43.079Z,5.50
2023-01-30T20:21:12.253Z,7.00
2023-01-30T20:23:40.461Z,5.75
2023-01-30T20:26:10.421Z,4.50
2023-01-30T20:28:37.505Z,3.00
2023-01-30T20:31:17.144Z,6.25
2023-01-30T20:33:44.299Z,5.00
2023-01-30T20:36:14.620Z,4.75
2023-01-30T20:38:43.239Z,3.00
2023-01-30T20:41:22.052Z,4.00
2023-01-30T20:43:52.153Z,3.00
2023-01-30T20:46:21.857Z,3.00
2023-01-30T20:48:50.568Z,3.00
2023-01-30T20:51:21.095Z,3.00
2023-01-30T20:53:50.834Z,3.00
2023-01-30T20:56:18.969Z,3.00
2023-01-30T20:58:46.462Z,4.75
2023-01-30T21:01:19.625Z,7.00
2023-01-30T21:03:48.188Z,5.00
2023-01-30T21:06:42.642Z,4.25
2023-01-30T21:09:03.349Z,5.00
2023-01-30T21:11:30.254Z,4.00
2023-01-30T21:13:57.348Z,3.00
2023-01-30T21:16:27.728Z,3.00
2023-01-30T21:18:58.276Z,3.25
2023-01-30T21:21:39.205Z,5.00
2023-01-30T21:24:13.216Z,3.00
2023-01-30T21:26:43.649Z,3.00
2023-01-30T21:29:11.009Z,4.00
2023-01-30T21:31:39.647Z,4.00
2023-01-30T21:34:07.210Z,2.00
2023-01-30T21:36:34.184Z,3.00
2023-01-30T21:39:01.108Z,5.00
2023-01-30T21:41:34.711Z,4.25
2023-01-30T21:44:01.872Z,4.75
2023-01-30T21:46:31.980Z,6.75
2023-01-30T21:48:59.313Z,5.00
2023-01-30T21:51:26.142Z,5.00
2023-01-30T21:53:54.409Z,3.25
2023-01-30T21:56:23.093Z,3.00
2023-01-30T21:58:50.463Z,3.00
2023-01-30T22:01:18.224Z,3.00
2023-01-30T22:03:45.199Z,3.25
2023-01-30T22:06:12.295Z,3.00
2023-01-30T22:08:40.025Z,2.00
2023-01-30T22:11:12.988Z,2.00
2023-01-30T22:13:42.093Z,3.00
2023-01-30T22:16:12.282Z,1.00
2023-01-30T22:18:40.687Z,3.00
2023-01-30T22:21:08.812Z,3.75
2023-01-30T22:23:38.576Z,3.50
2023-01-30T22:26:06.187Z,4.00
2023-01-30T22:28:33.465Z,2.50
2023-01-30T22:31:08.397Z,3.00
2023-01-30T22:33:36.554Z,3.00
2023-01-30T22:36:06.359Z,2.75
2023-01-30T22:38:34.237Z,4.00
2023-01-30T22:41:08.870Z,6.00
2023-01-30T22:43:36.208Z,4.25
2023-01-30T22:46:06.238Z,5.00
2023-01-30T22:48:34.499Z,3.50
2023-01-30T22:51:16.550Z,3.75
2023-01-30T22:54:10.862Z,3.00
2023-01-30T22:56:40.681Z,3.00
2023-01-30T22:59:08.859Z,5.00
2023-01-30T23:01:38.408Z,3.00
2023-01-30T23:04:13.212Z,2.00
2023-01-30T23:06:41.165Z,4.00
2023-01-30T23:09:10.477Z,3.50
2023-01-30T23:11:43.723Z,3.00
2023-01-30T23:14:12.646Z,3.00
2023-01-30T23:16:42.090Z,2.00
2023-01-30T23:19:10.942Z,4.00
2023-01-30T23:21:43.004Z,3.00
2023-01-30T23:24:21.025Z,3.00
2023-01-30T23:26:50.399Z,2.25
2023-01-30T23:29:19.840Z,4.00
2023-01-30T23:31:47.670Z,5.00
2023-01-30T23:34:17.344Z,2.00
2023-01-30T23:36:45.352Z,5.00
2023-01-30T23:39:13.667Z,5.00
2023-01-30T23:41:41.981Z,6.00
2023-01-30T23:44:09.783Z,5.00
2023-01-30T23:46:41.757Z,4.00
2023-01-30T23:49:11.961Z,2.25
2023-01-30T23:51:40.740Z,1.00
2023-01-30T23:54:08.476Z,4.00
2023-01-30T23:56:38.785Z,4.00
2023-01-30T23:59:06.325Z,4.00
